Main page
METAR-TAF:

METAR-TAF

Airports :

Libertador General José de San Martín Airport

Posadas, Argentina

latitude: 27-22S, longitude: 055-58W, elevation: 131 m

Current weather observation

The report was made 57 minutes ago, at 18:00 UTC
Wind 6 kt from the East/Southeast
Temperature 17°C
Humidity 82%
Pressure 1022 hPa
Visibility 10 km or more
Few clouds at a height of 4500 ft
Overcast at a height of 10000 ft

METAR: SARP 161800Z 11006KT 9999 FEW045 OVC100 17/14 Q1022 RERA

Time: 15:57 (18:57 UTC)

Forecast

The report was made 1 hour and 57 minutes ago, at 17:00 UTC
Forecast valid from 16 at 18 UTC to 17 at 18 UTC
Wind 5 kt from the East
Visibility 10 km or more
Scattered clouds at a height of 4500 ft, Towering cumulus.
Becoming
from 17 at 06 UTC to 17 at 08 UTC
Visibility: 5000 m
Broken clouds at a height of 4000 ft
Few clouds at a height of 5000 ft, Cumulonimbus.
thunderstorm, light rain

TAF: SARP 161700Z 1618/1718 09005KT 9999 SCT045TCU TX22/1619Z TN12/1710Z BECMG 1706/1708 5000 -TSRA BKN040 FEW050CB

Weather observations and forecasts of more than 4000 airports (METAR and TAF reports).

The available stations are represented by yellow and red dots on the map.

Hover mouse over dot to see the name of the station.

Then click to see weather observations and forecasts.

To change the map : click on the green buttons with a black cross to zoom in, on the green button with a dash to zoom out, or on the green arrows for adjacent maps.


METAR-TAF: